Time;durP1;ratioP1;P1;durP2;ratioP2;P2;SDS_P1;SDS_P2;PMS_P1;PMS_P2;Temp;Humidity;BMP_temperature;BMP_pressure;BME280_temperature;BME280_humidity;BME280_pressure;Samples;Min_cycle;Max_cycle;Signal;HPM_P1;HPM_P2
2022/11/07 00:01:21;;;;;;;27.00;14.95;;;;;;;4.52;85.98;101246.86;1656697;86;21167;-87
2022/11/07 00:03:48;;;;;;;27.48;15.13;;;;;;;4.51;85.99;101243.36;1656906;86;21730;-87
2022/11/07 00:06:16;;;;;;;29.63;17.07;;;;;;;4.53;86.04;101246.95;1656228;86;21098;-87
2022/11/07 00:08:44;;;;;;;30.02;16.40;;;;;;;4.53;85.97;101243.45;1656810;85;21583;-86
2022/11/07 00:11:11;;;;;;;32.90;16.97;;;;;;;4.52;86.00;101234.70;1656998;86;22446;-87
2022/11/07 00:13:38;;;;;;;35.63;17.02;;;;;;;4.51;86.10;101236.84;1656701;86;21071;-86
2022/11/07 00:16:07;;;;;;;41.55;21.30;;;;;;;4.53;86.25;101236.52;1656797;86;21082;-86
2022/11/07 00:18:34;;;;;;;36.50;21.62;;;;;;;4.57;86.37;101234.58;1656779;86;21634;-86
2022/11/07 00:21:05;;;;;;;26.68;16.15;;;;;;;4.58;86.48;101236.39;1667499;84;21543;-86
2022/11/07 00:23:33;;;;;;;29.80;16.40;;;;;;;4.60;86.45;101234.77;1688076;83;22566;-87
2022/11/07 00:26:08;;;;;;;28.98;15.80;;;;;;;4.61;86.45;101238.26;1679689;84;21071;-89
2022/11/07 00:28:37;;;;;;;26.90;16.07;;;;;;;4.61;86.38;101234.34;1711829;83;21070;-86
2022/11/07 00:31:05;;;;;;;27.32;15.88;;;;;;;4.61;86.39;101232.63;1711851;83;21097;-86
2022/11/07 00:33:31;;;;;;;27.82;14.85;;;;;;;4.60;86.31;101236.06;1679802;85;21071;-86
2022/11/07 00:36:05;;;;;;;30.60;16.15;;;;;;;4.59;86.14;101232.95;1711914;83;21802;-87
2022/11/07 00:38:32;;;;;;;31.45;15.93;;;;;;;4.58;86.09;101223.73;1712471;83;21054;-87
2022/11/07 00:41:04;;;;;;;28.05;15.70;;;;;;;4.55;86.04;101223.17;1680081;84;21610;-88
2022/11/07 00:43:31;;;;;;;28.92;15.65;;;;;;;4.53;85.96;101227.81;1712074;83;21359;-87
2022/11/07 00:46:00;;;;;;;25.08;15.15;;;;;;;4.50;85.92;101225.02;1679850;84;21063;-88
2022/11/07 00:48:28;;;;;;;26.45;14.35;;;;;;;4.47;85.96;101225.34;1712162;83;21772;-88
2022/11/07 00:50:55;;;;;;;26.12;14.43;;;;;;;4.46;85.99;101217.42;1679509;84;21071;-87
2022/11/07 00:53:23;;;;;;;28.73;14.78;;;;;;;4.46;86.06;101215.70;1712016;83;21062;-86
2022/11/07 00:55:50;;;;;;;27.70;14.30;;;;;;;4.43;85.98;101211.64;1679644;84;21599;-86
2022/11/07 00:58:17;;;;;;;26.65;14.05;;;;;;;4.43;86.05;101208.12;1712178;83;21133;-87
2022/11/07 01:00:43;;;;;;;24.27;14.00;;;;;;;4.43;86.08;101202.91;1679756;84;22586;-87
2022/11/07 01:06:01;;;;;;;25.02;14.40;;;;;;;4.43;86.20;101190.80;1679523;84;21102;-87
2022/11/07 01:08:28;;;;;;;27.27;15.23;;;;;;;4.45;86.18;101189.58;1712147;83;21074;-87
2022/11/07 01:10:55;;;;;;;28.87;15.13;;;;;;;4.44;86.16;101179.95;1679763;84;21122;-86
2022/11/07 01:13:23;;;;;;;29.23;14.35;;;;;;;4.40;86.07;101172.36;1711860;83;21956;-88
2022/11/07 01:15:49;;;;;;;28.92;14.53;;;;;;;4.39;86.17;101173.19;1679806;84;21759;-87
2022/11/07 01:18:16;;;;;;;30.37;15.13;;;;;;;4.38;86.17;101170.08;1711717;83;21733;-88
2022/11/07 01:20:43;;;;;;;27.50;15.05;;;;;;;4.32;86.14;101158.39;1711873;83;21058;-88
2022/11/07 01:23:10;;;;;;;35.03;17.12;;;;;;;4.35;86.11;101163.79;1718355;83;21121;-88
2022/11/07 01:25:38;;;;;;;26.77;14.73;;;;;;;4.34;86.16;101152.48;1717008;83;21793;-89
2022/11/07 01:28:05;;;;;;;30.02;15.20;;;;;;;4.32;86.08;101151.87;1716546;83;21072;-89
2022/11/07 01:30:31;;;;;;;26.93;14.63;;;;;;;4.29;86.15;101143.08;1671240;85;21090;-88
2022/11/07 01:32:58;;;;;;;30.17;15.23;;;;;;;4.28;86.09;101141.30;1713645;83;21175;-88
2022/11/07 01:35:25;;;;;;;24.85;15.70;;;;;;;4.27;86.10;101139.91;1677662;84;21095;-87
2022/11/07 01:37:52;;;;;;;28.07;16.40;;;;;;;4.24;86.08;101139.34;1650772;86;21316;-88
2022/11/07 01:40:19;;;;;;;30.50;17.15;;;;;;;4.23;86.15;101137.53;1657664;84;21530;-87
2022/11/07 01:42:46;;;;;;;28.15;14.38;;;;;;;4.23;86.15;101124.91;1651263;85;21080;-88
2022/11/07 01:45:26;;;;;;;33.58;16.60;;;;;;;4.22;86.09;101127.02;1656025;85;21087;-88
2022/11/07 01:47:57;;;;;;;30.05;15.18;;;;;;;4.19;86.11;101125.56;1649580;86;21082;-89
2022/11/07 01:50:26;;;;;;;31.70;17.70;;;;;;;4.16;86.11;101130.58;1664938;85;22203;-88
2022/11/07 01:52:56;;;;;;;40.45;20.70;;;;;;;4.15;86.18;101126.17;1670906;85;22012;-88
2022/11/07 01:55:30;;;;;;;35.23;19.70;;;;;;;4.15;86.18;101128.77;1688175;85;21074;-88
2022/11/07 01:58:04;;;;;;;58.50;27.15;;;;;;;4.12;86.14;101121.69;1671232;84;21193;-87
2022/11/07 02:00:31;;;;;;;60.03;29.95;;;;;;;4.08;86.13;101119.31;1688874;84;21066;-87
2022/11/07 02:03:06;;;;;;;54.10;27.20;;;;;;;4.08;86.18;101117.12;1688371;84;21812;-87
2022/11/07 02:05:56;;;;;;;63.05;30.43;;;;;;;4.08;86.11;101119.73;1667195;84;21054;-87
2022/11/07 02:08:26;;;;;;;46.83;24.43;;;;;;;4.04;86.05;101117.35;1691077;84;21586;-87
2022/11/07 02:10:53;;;;;;;44.65;21.82;;;;;;;4.04;86.10;101117.77;1691241;84;21070;-87
2022/11/07 02:13:26;;;;;;;37.60;21.07;;;;;;;4.00;86.13;101111.48;1688495;84;21051;-87
2022/11/07 02:15:53;;;;;;;36.10;18.17;;;;;;;4.00;86.10;101104.97;1685357;85;22524;-87
2022/11/07 02:18:21;;;;;;;25.77;15.48;;;;;;;3.99;86.13;101095.76;1683503;85;21103;-87
2022/11/07 02:20:48;;;;;;;28.38;14.75;;;;;;;4.02;86.22;101102.05;1679840;85;21078;-87
2022/11/07 02:23:28;;;;;;;25.05;14.35;;;;;;;4.02;86.25;101093.34;1659543;85;21137;-87
2022/11/07 02:25:55;;;;;;;25.50;14.60;;;;;;;4.03;86.43;101093.40;1694188;83;21084;-88
2022/11/07 02:28:22;;;;;;;24.77;14.70;;;;;;;4.08;86.56;101087.17;1708159;83;21748;-88
2022/11/07 02:30:49;;;;;;;27.60;14.20;;;;;;;4.11;86.58;101086.05;1652565;86;21106;-86
2022/11/07 02:33:19;;;;;;;21.80;13.18;;;;;;;4.14;86.59;101080.10;1686927;85;21094;-86
2022/11/07 02:35:49;;;;;;;22.85;13.80;;;;;;;4.06;86.56;101066.23;1652237;85;21100;-86
2022/11/07 02:38:33;;;;;;;23.12;14.15;;;;;;;4.18;86.52;101075.55;1633646;86;22073;-86
2022/11/07 02:41:06;;;;;;;24.25;13.15;;;;;;;4.19;86.57;101065.22;1683390;85;21809;-87
2022/11/07 02:43:34;;;;;;;25.80;13.50;;;;;;;4.21;86.55;101066.61;1652635;86;21667;-86
2022/11/07 02:46:03;;;;;;;27.93;14.58;;;;;;;4.23;86.67;101072.38;1683806;85;21039;-86
2022/11/07 02:48:47;;;;;;;31.75;14.65;;;;;;;4.27;86.69;101068.24;1652426;86;21075;-86
2022/11/07 02:51:15;;;;;;;27.67;15.05;;;;;;;4.29;86.71;101069.22;1652303;86;21126;-86
2022/11/07 02:53:41;;;;;;;28.57;14.45;;;;;;;4.32;86.73;101070.70;1683933;84;21767;-87
2022/11/07 02:56:09;;;;;;;28.15;14.98;;;;;;;4.34;86.75;101066.89;1684147;85;21043;-87
2022/11/07 02:58:36;;;;;;;27.73;15.85;;;;;;;4.36;86.75;101064.84;1652565;86;21608;-87
2022/11/07 03:01:05;;;;;;;25.57;13.90;;;;;;;4.40;86.76;101067.22;1652491;86;21573;-87
2022/11/07 03:03:33;;;;;;;27.17;15.15;;;;;;;4.41;86.72;101066.00;1652416;85;21063;-87
2022/11/07 03:06:00;;;;;;;28.32;15.13;;;;;;;4.42;86.71;101074.30;1651935;85;22026;-87
2022/11/07 03:08:27;;;;;;;31.95;15.72;;;;;;;4.41;86.68;101075.13;1683775;85;21059;-88
2022/11/07 03:10:54;;;;;;;28.90;15.50;;;;;;;4.43;86.76;101066.06;1665237;86;21047;-87
2022/11/07 03:13:21;;;;;;;29.57;16.15;;;;;;;4.46;86.75;101071.45;1652584;86;21240;-88
2022/11/07 03:15:54;;;;;;;27.35;15.68;;;;;;;4.47;86.73;101073.27;1683784;85;21599;-88
2022/11/07 03:18:21;;;;;;;24.55;14.90;;;;;;;4.48;86.77;101070.71;1652613;85;22592;-88
2022/11/07 03:20:48;;;;;;;29.07;15.55;;;;;;;4.53;86.73;101064.88;1650794;86;21083;-86
2022/11/07 03:23:18;;;;;;;31.20;15.88;;;;;;;4.54;86.72;101075.36;1653440;86;21086;-86
2022/11/07 03:25:44;;;;;;;30.08;15.60;;;;;;;4.57;86.70;101070.33;1655216;86;21529;-87
2022/11/07 03:28:11;;;;;;;28.62;16.00;;;;;;;4.59;86.74;101066.09;1655135;86;21059;-88
2022/11/07 03:30:37;;;;;;;26.52;15.88;;;;;;;4.61;86.67;101072.70;1655216;86;21777;-88
2022/11/07 03:33:04;;;;;;;25.27;16.00;;;;;;;4.63;86.68;101078.89;1654753;85;21107;-88
2022/11/07 03:35:31;;;;;;;30.60;16.37;;;;;;;4.62;86.60;101070.18;1655400;86;21078;-88
2022/11/07 03:37:58;;;;;;;27.60;16.30;;;;;;;4.63;86.57;101073.25;1655435;86;22491;-88
2022/11/07 03:40:25;;;;;;;25.95;17.00;;;;;;;4.65;86.56;101073.34;1655579;86;21103;-88
2022/11/07 03:42:56;;;;;;;32.08;16.52;;;;;;;4.67;86.55;101072.63;1655364;86;22375;-87
2022/11/07 03:45:23;;;;;;;33.42;18.20;;;;;;;4.67;86.43;101073.94;1655156;85;21063;-87
2022/11/07 03:47:51;;;;;;;32.60;16.87;;;;;;;4.66;86.40;101066.03;1654835;85;21071;-87
2022/11/07 03:50:19;;;;;;;33.28;18.62;;;;;;;4.67;86.44;101054.38;1655360;86;21106;-87
2022/11/07 03:52:46;;;;;;;35.73;18.12;;;;;;;4.67;86.36;101051.77;1655330;86;21289;-87
2022/11/07 03:55:14;;;;;;;28.55;18.32;;;;;;;4.66;86.33;101047.36;1655086;85;21933;-86
2022/11/07 03:57:41;;;;;;;32.40;18.25;;;;;;;4.65;86.31;101044.66;1655483;86;21591;-88
2022/11/07 04:00:09;;;;;;;38.28;27.05;;;;;;;4.65;86.23;101054.71;1655301;85;21595;-87
2022/11/07 04:02:36;;;;;;;40.70;24.10;;;;;;;4.61;86.16;101054.03;1639740;86;21144;-87
2022/11/07 04:05:03;;;;;;;28.60;18.67;;;;;;;4.57;86.11;101049.89;1645684;86;21082;-87
2022/11/07 04:07:30;;;;;;;31.87;18.27;;;;;;;4.53;86.05;101054.03;1655343;85;21757;-87
2022/11/07 04:09:57;;;;;;;27.20;17.52;;;;;;;4.51;86.13;101043.94;1655096;85;22243;-87
2022/11/07 04:17:54;;;;;;;37.33;22.50;;;;;;;4.44;86.19;101033.98;1648497;85;21058;-87
2022/11/07 04:20:21;;;;;;;43.38;26.20;;;;;;;4.40;86.18;101029.42;1658546;86;21721;-87
2022/11/07 04:22:48;;;;;;;47.53;28.10;;;;;;;4.38;86.24;101032.36;1641003;86;21123;-87
2022/11/07 04:25:15;;;;;;;32.80;19.07;;;;;;;4.35;86.30;101025.66;1663948;86;21078;-87
2022/11/07 04:27:42;;;;;;;30.75;18.95;;;;;;;4.33;86.37;101021.66;1659824;83;21600;-87
2022/11/07 04:30:18;;;;;;;28.65;18.42;;;;;;;4.34;86.43;101031.70;1668253;85;21079;-86
2022/11/07 04:32:52;;;;;;;31.97;19.23;;;;;;;4.35;86.55;101036.09;1684030;85;21779;-87
2022/11/07 04:35:22;;;;;;;31.12;19.23;;;;;;;4.35;86.59;101023.95;1651609;86;21147;-86
2022/11/07 04:37:49;;;;;;;30.05;18.90;;;;;;;4.36;86.63;101023.15;1656795;85;21070;-87
2022/11/07 04:40:16;;;;;;;28.17;17.50;;;;;;;4.37;86.64;101021.42;1655190;85;21114;-87
2022/11/07 04:42:43;;;;;;;36.50;21.55;;;;;;;4.38;86.60;101018.02;1681074;85;21556;-87
2022/11/07 04:45:11;;;;;;;35.52;20.05;;;;;;;4.37;86.61;101011.00;1677815;85;22398;-87
2022/11/07 04:47:38;;;;;;;32.75;19.40;;;;;;;4.33;86.64;101001.23;1668668;85;21084;-88
2022/11/07 04:50:09;;;;;;;35.28;19.60;;;;;;;4.39;86.64;101008.07;1664018;86;21060;-88
2022/11/07 04:52:36;;;;;;;28.17;18.55;;;;;;;4.36;86.57;100999.69;1691163;83;21129;-87
2022/11/07 04:55:02;;;;;;;30.75;19.55;;;;;;;4.36;86.58;100993.59;1689492;83;21065;-87
2022/11/07 04:57:29;;;;;;;37.53;21.80;;;;;;;4.33;86.57;100997.33;1697000;83;21894;-87
2022/11/07 04:59:56;;;;;;;29.80;20.08;;;;;;;4.32;86.65;100984.71;1702519;83;21067;-83
2022/11/07 05:02:26;;;;;;;34.45;21.75;;;;;;;4.33;86.74;100979.97;1675975;84;21043;-83
2022/11/07 05:04:53;;;;;;;41.55;22.13;;;;;;;4.35;86.73;100974.43;1674979;84;21070;-88
2022/11/07 05:07:22;;;;;;;39.30;23.50;;;;;;;4.38;86.83;100961.58;1684824;83;21280;-87
2022/11/07 05:09:52;;;;;;;39.88;23.98;;;;;;;4.38;86.87;100966.78;1674823;84;21781;-88
2022/11/07 05:12:22;;;;;;;36.98;22.75;;;;;;;4.40;86.93;100965.16;1653488;86;21442;-87
2022/11/07 05:14:51;;;;;;;39.20;23.52;;;;;;;4.45;87.00;100947.17;1654471;86;21568;-87
2022/11/07 05:17:17;;;;;;;33.73;21.77;;;;;;;4.46;87.06;100949.83;1654667;86;21337;-89
2022/11/07 05:19:44;;;;;;;39.95;23.92;;;;;;;4.49;87.08;100945.20;1654209;85;21079;-89
2022/11/07 05:24:56;;;;;;;37.58;22.22;;;;;;;4.51;87.08;100939.66;1712315;83;21063;-87
2022/11/07 05:27:23;;;;;;;39.05;23.57;;;;;;;4.54;87.08;100944.12;1670805;85;21635;-86
2022/11/07 05:29:50;;;;;;;32.65;21.42;;;;;;;4.55;87.10;100944.22;1683497;85;21066;-87
2022/11/07 05:32:20;;;;;;;33.35;20.97;;;;;;;4.56;87.13;100943.41;1683848;85;21089;-89
2022/11/07 05:34:49;;;;;;;31.30;21.45;;;;;;;4.51;87.11;100933.56;1683990;85;21763;-88
2022/11/07 05:37:24;;;;;;;36.45;21.82;;;;;;;4.59;87.18;100941.36;1652167;86;21047;-89
2022/11/07 05:39:51;;;;;;;34.03;20.70;;;;;;;4.64;87.23;100946.00;1663143;84;21066;-87
2022/11/07 05:42:17;;;;;;;38.80;23.02;;;;;;;4.70;87.26;100957.58;1683505;85;21058;-86
2022/11/07 05:44:44;;;;;;;39.00;23.00;;;;;;;4.78;87.50;100951.03;1684220;84;21103;-86
2022/11/07 05:47:11;;;;;;;35.48;23.35;;;;;;;4.89;87.61;100951.59;1703149;83;21767;-84
2022/11/07 05:49:37;;;;;;;30.88;21.37;;;;;;;5.00;87.69;100955.64;1711860;83;21093;-87
2022/11/07 05:52:04;;;;;;;41.70;21.85;;;;;;;5.15;87.77;100952.91;1711668;83;21111;-86
2022/11/07 05:54:32;;;;;;;34.48;22.35;;;;;;;5.28;87.77;100951.39;1712408;83;21167;-85
2022/11/07 05:56:58;;;;;;;29.55;20.15;;;;;;;5.39;87.72;100954.12;1679875;85;21091;-86
2022/11/07 05:59:25;;;;;;;34.90;20.92;;;;;;;5.47;87.49;100953.19;1654955;85;21725;-85
2022/11/07 06:01:52;;;;;;;33.33;21.55;;;;;;;5.55;87.42;100956.17;1652372;86;21106;-84
2022/11/07 06:04:19;;;;;;;35.23;21.95;;;;;;;5.61;87.35;100958.68;1683879;83;21129;-85
2022/11/07 06:06:46;;;;;;;32.55;21.42;;;;;;;5.68;87.29;100957.23;1689039;83;21478;-84
2022/11/07 06:09:13;;;;;;;36.68;23.50;;;;;;;5.74;87.22;100957.52;1652308;86;21106;-85
2022/11/07 06:11:40;;;;;;;35.35;22.62;;;;;;;5.81;87.17;100937.83;1683599;85;21759;-85
2022/11/07 06:14:06;;;;;;;36.25;23.90;;;;;;;5.88;87.11;100943.83;1667949;85;21114;-85
2022/11/07 06:16:33;;;;;;;44.03;26.73;;;;;;;5.93;87.06;100951.48;1655050;84;21082;-84
2022/11/07 06:19:01;;;;;;;39.38;26.07;;;;;;;5.97;86.96;100948.22;1652118;86;21686;-84
2022/11/07 06:21:27;;;;;;;41.08;26.35;;;;;;;6.02;86.93;100958.86;1653961;85;21102;-84
2022/11/07 06:23:54;;;;;;;39.42;26.30;;;;;;;6.09;86.95;100946.57;1637326;86;21732;-84
2022/11/07 06:26:21;;;;;;;39.85;26.33;;;;;;;6.15;86.89;100949.45;1683348;85;21628;-84
2022/11/07 06:28:51;;;;;;;47.58;28.90;;;;;;;6.21;86.85;100947.54;1653800;86;21067;-84
2022/11/07 06:31:16;;;;;;;42.30;26.45;;;;;;;6.28;86.82;100939.58;1663701;83;21165;-83
2022/11/07 06:33:43;;;;;;;43.17;25.27;;;;;;;6.29;86.65;100934.42;1668102;86;21095;-84
2022/11/07 06:36:11;;;;;;;42.98;26.48;;;;;;;6.35;86.74;100937.31;1667851;86;22463;-83
2022/11/07 06:38:38;;;;;;;43.45;27.13;;;;;;;6.38;86.54;100934.84;1650948;86;21088;-83
2022/11/07 06:41:08;;;;;;;44.00;27.77;;;;;;;6.39;86.47;100937.92;1668150;84;21060;-84
2022/11/07 06:43:35;;;;;;;46.15;29.30;;;;;;;6.37;86.28;100940.88;1661863;85;21350;-83
2022/11/07 06:46:07;;;;;;;42.53;28.62;;;;;;;6.40;86.35;100943.64;1650973;86;21041;-82
2022/11/07 06:48:35;;;;;;;47.80;29.43;;;;;;;6.41;86.31;100941.49;1668086;86;21771;-81
2022/11/07 06:51:03;;;;;;;45.67;29.07;;;;;;;6.44;86.28;100944.68;1667983;84;21066;-82
2022/11/07 06:53:30;;;;;;;46.88;28.73;;;;;;;6.46;86.20;100951.26;1668217;85;21096;-82
2022/11/07 06:55:59;;;;;;;47.73;30.27;;;;;;;6.46;86.19;100960.02;1697524;84;21070;-83
2022/11/07 06:58:26;;;;;;;54.63;31.20;;;;;;;6.49;86.18;100965.79;1697271;84;21093;-82
2022/11/07 07:00:52;;;;;;;47.05;29.45;;;;;;;6.50;86.06;100964.98;1688190;84;21757;-83
2022/11/07 07:03:19;;;;;;;42.38;28.45;;;;;;;6.53;86.07;100965.09;1687392;84;21124;-83
2022/11/07 07:05:46;;;;;;;48.35;31.30;;;;;;;6.54;86.07;100963.86;1688065;84;21044;-83
2022/11/07 07:08:13;;;;;;;48.75;30.25;;;;;;;6.61;86.23;100956.78;1688099;84;21084;-84
2022/11/07 07:10:43;;;;;;;46.55;31.05;;;;;;;6.67;86.12;100960.08;1687940;84;21129;-83
2022/11/07 07:13:11;;;;;;;51.90;31.30;;;;;;;6.74;86.08;100956.02;1688144;84;21773;-84
2022/11/07 07:15:38;;;;;;;52.98;31.50;;;;;;;6.77;85.85;100958.33;1688319;84;21270;-83
2022/11/07 07:18:05;;;;;;;48.58;31.17;;;;;;;6.77;85.78;100956.13;1688465;83;21130;-83
2022/11/07 07:20:31;;;;;;;50.70;32.38;;;;;;;6.78;85.73;100951.40;1700140;83;21645;-83
2022/11/07 07:22:58;;;;;;;54.85;32.03;;;;;;;6.77;85.59;100949.17;1691576;84;21268;-83
2022/11/07 07:25:25;;;;;;;56.05;33.53;;;;;;;6.80;85.63;100954.97;1707402;83;22622;-83
2022/11/07 07:27:52;;;;;;;68.02;45.55;;;;;;;6.82;85.51;100946.77;1717897;83;21626;-83
2022/11/07 07:30:21;;;;;;;52.53;34.30;;;;;;;6.84;85.50;100944.23;1663043;84;21090;-83
2022/11/07 07:32:47;;;;;;;59.83;37.33;;;;;;;6.88;85.58;100947.45;1636767;87;21122;-85
2022/11/07 07:35:15;;;;;;;63.28;39.75;;;;;;;6.87;85.53;100932.56;1627848;88;21105;-83
2022/11/07 07:37:41;;;;;;;50.23;34.43;;;;;;;6.99;85.51;100942.26;1627781;88;21727;-83
2022/11/07 07:40:09;;;;;;;49.63;32.73;;;;;;;7.06;85.53;100941.70;1622566;88;21098;-83
2022/11/07 07:42:42;;;;;;;55.60;34.83;;;;;;;7.12;85.35;100946.30;1655390;86;21063;-83
2022/11/07 07:45:10;;;;;;;51.83;34.63;;;;;;;7.12;85.18;100947.18;1655757;86;21094;-83
2022/11/07 07:47:37;;;;;;;56.92;34.38;;;;;;;7.15;85.22;100934.23;1655144;86;21666;-83
2022/11/07 07:50:05;;;;;;;49.23;34.00;;;;;;;7.19;85.04;100936.14;1658826;85;21792;-83
2022/11/07 07:52:32;;;;;;;51.83;34.53;;;;;;;7.23;85.09;100928.42;1682773;85;21142;-83
2022/11/07 07:54:59;;;;;;;49.35;32.05;;;;;;;7.28;85.03;100929.48;1683480;84;21095;-83
2022/11/07 07:57:26;;;;;;;47.25;33.50;;;;;;;7.32;84.85;100923.53;1683484;84;21130;-82
2022/11/07 07:59:52;;;;;;;53.25;35.65;;;;;;;7.33;84.80;100924.91;1683627;84;21090;-84
2022/11/07 08:02:20;;;;;;;47.48;32.50;;;;;;;7.39;84.82;100924.27;1683414;84;21805;-84
2022/11/07 08:04:46;;;;;;;44.55;32.08;;;;;;;7.47;84.78;100925.50;1683694;84;22306;-82
2022/11/07 08:07:13;;;;;;;55.23;34.50;;;;;;;7.52;84.69;100920.42;1684621;85;21063;-83
2022/11/07 08:09:41;;;;;;;49.53;33.75;;;;;;;7.57;84.66;100911.92;1683742;84;21125;-84
2022/11/07 08:12:08;;;;;;;49.33;33.15;;;;;;;7.65;84.56;100910.91;1684091;84;21039;-85
2022/11/07 08:14:35;;;;;;;46.95;31.85;;;;;;;7.74;84.39;100913.00;1684382;85;21691;-83
2022/11/07 08:17:02;;;;;;;46.30;31.97;;;;;;;7.83;84.46;100907.20;1684092;85;21086;-83
2022/11/07 08:19:29;;;;;;;45.75;32.60;;;;;;;8.00;84.67;100896.97;1684168;84;21538;-84
2022/11/07 08:21:55;;;;;;;45.05;32.13;;;;;;;8.11;84.30;100902.20;1684455;84;21812;-83
2022/11/07 08:24:22;;;;;;;49.53;32.17;;;;;;;8.21;84.08;100906.05;1705719;83;21053;-83
2022/11/07 08:26:49;;;;;;;54.45;35.85;;;;;;;8.21;83.70;100909.09;1713647;83;22006;-83
2022/11/07 08:29:16;;;;;;;49.13;34.38;;;;;;;8.17;83.50;100902.84;1679660;84;21078;-82
2022/11/07 08:31:43;;;;;;;46.13;32.13;;;;;;;8.13;83.29;100901.84;1712166;83;21077;-82
2022/11/07 08:34:10;;;;;;;46.65;33.30;;;;;;;8.07;83.15;100908.17;1679826;84;21102;-82
2022/11/07 08:36:37;;;;;;;49.20;32.67;;;;;;;8.01;83.06;100910.96;1712038;83;21051;-82
2022/11/07 08:39:04;;;;;;;47.48;32.05;;;;;;;7.91;82.86;100911.03;1679500;84;23101;-83
2022/11/07 08:41:30;;;;;;;45.55;30.65;;;;;;;7.83;82.92;100909.83;1711821;83;21019;-83
2022/11/07 08:43:57;;;;;;;52.55;31.48;;;;;;;7.81;82.97;100918.97;1679523;84;21067;-83
2022/11/07 08:46:29;;;;;;;45.03;32.28;;;;;;;7.78;82.89;100922.34;1711800;83;21115;-83
2022/11/07 08:48:58;;;;;;;47.90;31.45;;;;;;;7.81;83.10;100908.88;1679915;85;22161;-85
2022/11/07 08:51:25;;;;;;;48.87;31.82;;;;;;;7.87;83.18;100910.02;1711840;83;21754;-83
2022/11/07 08:53:52;;;;;;;45.83;31.05;;;;;;;8.03;83.35;100904.05;1675495;85;22299;-83
2022/11/07 08:56:19;;;;;;;44.33;30.12;;;;;;;8.12;83.31;100904.39;1652231;85;21090;-83
2022/11/07 08:58:45;;;;;;;47.10;31.27;;;;;;;8.22;83.22;100905.63;1683501;85;21172;-83
2022/11/07 09:01:12;;;;;;;46.45;32.58;;;;;;;8.29;83.06;100915.08;1683463;85;21081;-83
2022/11/07 09:03:39;;;;;;;42.43;30.85;;;;;;;8.42;83.21;100916.46;1683557;85;21948;-83
2022/11/07 09:06:06;;;;;;;47.23;32.45;;;;;;;8.66;83.24;100915.56;1652303;86;21091;-83
2022/11/07 09:08:33;;;;;;;45.98;31.55;;;;;;;8.86;83.11;100907.05;1652351;86;21329;-83
2022/11/07 09:11:02;;;;;;;45.50;30.92;;;;;;;9.05;83.00;100905.98;1652289;85;21067;-83
2022/11/07 09:13:30;;;;;;;44.23;31.25;;;;;;;9.19;82.66;100911.67;1683617;85;21070;-83
2022/11/07 09:15:58;;;;;;;44.05;31.50;;;;;;;9.23;82.31;100917.06;1683461;85;22697;-83
2022/11/07 09:18:26;;;;;;;42.17;28.65;;;;;;;9.22;81.90;100920.98;1652623;85;21101;-83
2022/11/07 09:20:53;;;;;;;44.55;30.23;;;;;;;9.13;81.30;100932.95;1651976;86;21073;-83
2022/11/07 09:23:20;;;;;;;45.40;31.27;;;;;;;8.99;81.21;100928.06;1651978;86;21100;-83
2022/11/07 09:25:46;;;;;;;38.60;29.90;;;;;;;8.98;81.39;100925.87;1685280;84;21118;-83
2022/11/07 09:28:13;;;;;;;45.23;31.20;;;;;;;8.99;81.34;100926.36;1683073;85;21982;-84
2022/11/07 09:30:40;;;;;;;46.90;31.73;;;;;;;9.02;81.39;100918.56;1683330;84;21498;-84
2022/11/07 09:33:07;;;;;;;43.48;30.82;;;;;;;9.05;81.32;100915.17;1683686;85;21032;-84
2022/11/07 09:35:34;;;;;;;43.10;30.75;;;;;;;9.00;81.37;100889.17;1683586;84;21070;-84
2022/11/07 09:38:00;;;;;;;42.88;29.85;;;;;;;9.23;81.46;100917.06;1683605;85;21063;-84
2022/11/07 09:41:06;;;;;;;42.88;30.55;;;;;;;9.25;81.11;100918.04;1683683;84;21934;-84
2022/11/07 09:44:07;;;;;;;45.67;29.95;;;;;;;9.26;80.94;100909.30;1698828;83;21406;-84
2022/11/07 09:47:00;;;;;;;40.40;29.00;;;;;;;9.40;81.04;100912.36;1679871;85;21134;-84
2022/11/07 09:49:43;;;;;;;44.75;30.92;;;;;;;9.50;80.95;100903.06;1712216;83;21062;-84
2022/11/07 09:52:23;;;;;;;42.98;29.23;;;;;;;9.60;80.89;100897.24;1652403;86;21082;-84
2022/11/07 09:55:01;;;;;;;44.00;30.32;;;;;;;9.66;80.73;100894.80;1652119;86;22729;-85
2022/11/07 09:57:30;;;;;;;42.17;28.83;;;;;;;9.66;80.30;100898.73;1651795;86;21091;-85
2022/11/07 10:00:01;;;;;;;43.92;29.77;;;;;;;9.68;80.33;100895.73;1683684;85;21097;-84
2022/11/07 10:02:31;;;;;;;42.55;29.12;;;;;;;9.72;80.22;100902.89;1652863;86;21094;-83
2022/11/07 10:05:00;;;;;;;37.73;27.90;;;;;;;9.73;80.10;100900.72;1683269;85;21046;-84
2022/11/07 10:08:02;;;;;;;41.00;27.30;;;;;;;9.75;80.07;100899.45;1683514;85;22617;-83
2022/11/07 10:10:50;;;;;;;40.17;29.37;;;;;;;9.73;79.84;100895.89;1652336;86;21683;-83
2022/11/07 10:13:50;;;;;;;34.38;26.50;;;;;;;9.72;79.72;100888.83;1652358;85;21082;-84
2022/11/07 10:16:22;;;;;;;34.08;26.17;;;;;;;9.66;79.58;100892.17;1645366;86;21067;-83
2022/11/07 10:19:25;;;;;;;35.28;26.17;;;;;;;9.61;79.53;100891.16;1683034;85;21141;-83
2022/11/07 10:22:35;;;;;;;39.05;26.48;;;;;;;9.59;79.50;100882.33;1682820;85;21768;-84
2022/11/07 10:25:20;;;;;;;35.52;25.80;;;;;;;9.59;79.58;100888.91;1653737;85;21146;-83
2022/11/07 10:28:07;;;;;;;37.13;25.62;;;;;;;9.64;79.63;100879.84;1656658;85;21326;-83
2022/11/07 10:30:34;;;;;;;37.67;25.05;;;;;;;9.68;79.68;100878.64;1655363;86;21138;-83
2022/11/07 10:33:23;;;;;;;34.35;25.25;;;;;;;9.73;79.47;100866.97;1630239;87;21800;-84
2022/11/07 10:36:04;;;;;;;35.28;24.43;;;;;;;9.71;79.38;100866.04;1630726;87;22568;-84
2022/11/07 10:38:32;;;;;;;34.55;25.08;;;;;;;9.73;79.37;100880.12;1630822;87;21171;-83
2022/11/07 10:40:59;;;;;;;33.92;25.40;;;;;;;9.69;79.21;100886.13;1672434;85;21059;-84
2022/11/07 10:43:39;;;;;;;33.55;24.92;;;;;;;9.68;79.25;100886.53;1657989;86;21167;-83
2022/11/07 10:46:18;;;;;;;30.62;24.20;;;;;;;9.65;79.20;100883.83;1672568;85;21102;-83
2022/11/07 10:48:59;;;;;;;32.15;25.02;;;;;;;9.57;79.08;100887.94;1672425;85;21768;-84
2022/11/07 10:51:38;;;;;;;39.00;25.40;;;;;;;9.52;79.19;100873.78;1657830;86;22175;-84
2022/11/07 10:54:05;;;;;;;34.53;25.02;;;;;;;9.57;79.43;100869.97;1672486;85;21659;-84
2022/11/07 10:56:45;;;;;;;36.65;24.98;;;;;;;9.62;79.51;100882.41;1657423;86;21228;-84
2022/11/07 10:59:13;;;;;;;30.77;22.62;;;;;;;9.72;79.59;100880.95;1671900;85;21676;-83
2022/11/07 11:01:40;;;;;;;31.33;23.40;;;;;;;9.79;79.52;100873.72;1657484;86;22572;-84
2022/11/07 11:04:07;;;;;;;31.45;22.60;;;;;;;9.79;79.24;100875.03;1672375;85;21332;-86
2022/11/07 11:06:37;;;;;;;30.30;22.30;;;;;;;9.81;79.33;100868.52;1646908;86;21070;-86
2022/11/07 11:09:16;;;;;;;34.50;24.32;;;;;;;9.81;79.22;100873.34;1692792;83;21540;-86
2022/11/07 11:11:44;;;;;;;31.17;23.12;;;;;;;9.87;79.32;100874.86;1694278;84;21071;-86
2022/11/07 11:14:13;;;;;;;33.48;22.02;;;;;;;9.99;79.42;100870.81;1694027;84;21786;-87
2022/11/07 11:16:40;;;;;;;31.33;21.90;;;;;;;10.12;79.22;100875.58;1694193;84;21110;-87
2022/11/07 11:19:21;;;;;;;31.12;23.90;;;;;;;10.17;79.07;100871.31;1678641;84;21022;-85
2022/11/07 11:21:49;;;;;;;32.35;20.90;;;;;;;10.29;79.08;100882.20;1635744;86;21117;-87
2022/11/07 11:24:21;;;;;;;31.00;21.17;;;;;;;10.42;78.89;100877.33;1663066;84;21061;-87
2022/11/07 11:26:51;;;;;;;28.20;20.55;;;;;;;10.53;78.91;100873.65;1662744;86;22645;-87
2022/11/07 11:29:42;;;;;;;27.82;21.48;;;;;;;10.60;78.60;100877.80;1699935;83;21077;-87
2022/11/07 11:32:38;;;;;;;28.57;20.80;;;;;;;10.65;78.50;100872.24;1721804;83;21113;-87
2022/11/07 11:35:30;;;;;;;31.33;21.62;;;;;;;10.72;78.34;100869.36;1675066;84;21067;-87
2022/11/07 11:38:16;;;;;;;27.13;19.67;;;;;;;10.80;78.36;100866.92;1653135;86;21108;-87
2022/11/07 11:40:47;;;;;;;25.82;20.70;;;;;;;10.89;78.25;100861.46;1658887;86;21752;-87